createdAt,value
2023-05-12T00:02:27.024Z,15.02
2023-05-12T00:04:55.201Z,15.01
2023-05-12T00:07:23.021Z,14.99
2023-05-12T00:09:50.810Z,14.96
2023-05-12T00:12:20.057Z,14.98
2023-05-12T00:14:47.990Z,14.97
2023-05-12T00:17:15.744Z,14.96
2023-05-12T00:19:44.392Z,14.96
2023-05-12T00:22:12.466Z,14.96
2023-05-12T00:24:40.818Z,14.96
2023-05-12T00:27:08.618Z,14.95
2023-05-12T00:29:37.873Z,14.93
2023-05-12T00:32:07.157Z,14.91
2023-05-12T00:34:34.939Z,14.89
2023-05-12T00:37:02.729Z,14.87
2023-05-12T00:39:30.602Z,14.86
2023-05-12T00:41:59.180Z,14.85
2023-05-12T00:44:27.040Z,14.85
2023-05-12T00:46:56.168Z,14.84
2023-05-12T00:49:26.876Z,14.84
2023-05-12T00:51:55.773Z,14.84
2023-05-12T00:54:23.934Z,14.84
2023-05-12T00:56:52.332Z,14.84
2023-05-12T00:59:20.334Z,14.82
2023-05-12T01:01:49.646Z,14.81
2023-05-12T01:04:18.931Z,14.80
2023-05-12T01:06:50.937Z,14.79
2023-05-12T01:09:19.244Z,14.78
2023-05-12T01:11:47.333Z,14.78
2023-05-12T01:14:15.085Z,14.76
2023-05-12T01:16:49.399Z,14.75
2023-05-12T01:19:33.716Z,14.74
2023-05-12T01:22:02.316Z,14.72
2023-05-12T01:24:34.266Z,14.71
2023-05-12T01:27:04.496Z,14.72
2023-05-12T01:29:33.593Z,14.71
2023-05-12T01:32:01.785Z,14.71
2023-05-12T01:34:29.591Z,14.69
2023-05-12T01:36:57.354Z,14.60
2023-05-12T01:39:25.154Z,14.69
2023-05-12T01:41:52.971Z,14.62
2023-05-12T01:44:22.125Z,14.67
2023-05-12T01:46:50.169Z,14.67
2023-05-12T01:49:17.989Z,14.65
2023-05-12T01:51:45.736Z,14.63
2023-05-12T01:54:13.522Z,14.62
2023-05-12T01:56:41.437Z,14.62
2023-05-12T01:59:09.694Z,14.61
2023-05-12T02:01:38.924Z,14.61
2023-05-12T02:04:09.256Z,14.57
2023-05-12T02:06:37.431Z,14.60
2023-05-12T02:09:05.523Z,14.59
2023-05-12T02:11:33.358Z,14.56
2023-05-12T02:14:01.128Z,14.52
2023-05-12T02:16:28.992Z,14.50
2023-05-12T02:18:58.292Z,14.46
2023-05-12T02:21:26.297Z,14.46
2023-05-12T02:23:54.140Z,14.44
2023-05-12T02:26:22.091Z,14.43
2023-05-12T02:28:49.899Z,14.42
2023-05-12T02:31:17.741Z,14.41
2023-05-12T02:33:45.483Z,14.41
2023-05-12T02:36:14.633Z,14.40
2023-05-12T02:38:42.496Z,14.41
2023-05-12T02:41:10.372Z,14.41
2023-05-12T02:43:38.169Z,14.38
2023-05-12T02:46:06.095Z,14.36
2023-05-12T02:48:33.960Z,14.35
2023-05-12T02:51:01.778Z,14.35
2023-05-12T02:53:31.086Z,14.34
2023-05-12T02:55:59.055Z,14.34
2023-05-12T02:58:26.976Z,14.32
2023-05-12T03:01:06.794Z,14.32
2023-05-12T03:03:38.633Z,14.30
2023-05-12T03:06:07.222Z,14.32
2023-05-12T03:08:36.624Z,14.30
2023-05-12T03:11:04.528Z,14.30
2023-05-12T03:13:32.316Z,14.28
2023-05-12T03:16:01.686Z,14.28
2023-05-12T03:18:29.995Z,14.28
2023-05-12T03:20:57.957Z,14.27
2023-05-12T03:23:25.769Z,14.27
2023-05-12T03:25:55.476Z,14.26
2023-05-12T03:28:24.850Z,14.26
2023-05-12T03:30:52.665Z,14.23
2023-05-12T03:33:20.496Z,14.22
2023-05-12T03:35:48.319Z,14.21
2023-05-12T03:38:16.093Z,14.21
2023-05-12T03:40:43.884Z,14.21
2023-05-12T03:43:13.038Z,14.19
2023-05-12T03:45:40.890Z,14.20
2023-05-12T03:48:08.850Z,14.20
2023-05-12T03:50:36.744Z,14.20
2023-05-12T03:53:04.539Z,14.19
2023-05-12T03:55:32.321Z,14.19
2023-05-12T03:58:00.224Z,14.20
2023-05-12T04:00:29.529Z,14.18
2023-05-12T04:02:57.404Z,14.15
2023-05-12T04:05:25.365Z,14.15
2023-05-12T04:07:53.320Z,14.15
2023-05-12T04:10:21.551Z,14.14
2023-05-12T04:12:49.440Z,14.14
2023-05-12T04:15:17.653Z,14.13
2023-05-12T04:17:46.858Z,14.11
2023-05-12T04:20:14.672Z,14.11
2023-05-12T04:22:42.427Z,14.11
2023-05-12T04:25:11.050Z,14.10
2023-05-12T04:27:38.984Z,14.10
2023-05-12T04:30:08.186Z,14.09
2023-05-12T04:32:36.376Z,14.09
2023-05-12T04:35:06.201Z,14.07
2023-05-12T04:37:34.482Z,14.06
2023-05-12T04:40:02.558Z,14.06
2023-05-12T04:42:30.487Z,14.06
2023-05-12T04:44:58.282Z,14.06
2023-05-12T04:47:26.097Z,14.06
2023-05-12T04:49:53.877Z,14.05
2023-05-12T04:52:24.778Z,14.05
2023-05-12T04:54:53.370Z,14.05
2023-05-12T04:57:24.158Z,14.05
2023-05-12T04:59:51.943Z,14.04
2023-05-12T05:02:19.778Z,14.05
2023-05-12T05:04:47.607Z,14.04
2023-05-12T05:07:15.403Z,14.03
2023-05-12T05:09:44.521Z,14.04
2023-05-12T05:12:12.379Z,14.03
2023-05-12T05:14:40.168Z,14.02
2023-05-12T05:17:08.168Z,14.01
2023-05-12T05:19:49.760Z,14.01
2023-05-12T05:22:22.529Z,14.00
2023-05-12T05:24:51.985Z,14.00
2023-05-12T05:27:20.000Z,13.98
2023-05-12T05:29:47.791Z,13.98
2023-05-12T05:32:15.815Z,13.97
2023-05-12T05:34:43.665Z,13.97
2023-05-12T05:37:11.625Z,13.98
2023-05-12T05:39:39.448Z,13.97
2023-05-12T05:42:08.804Z,13.99
2023-05-12T05:44:36.595Z,13.98
2023-05-12T05:47:04.461Z,13.99
2023-05-12T05:49:32.369Z,14.00
2023-05-12T05:52:00.210Z,14.01
2023-05-12T05:54:28.004Z,14.00
2023-05-12T05:56:56.043Z,14.00
2023-05-12T05:59:25.513Z,14.00
2023-05-12T06:01:53.503Z,14.00
2023-05-12T06:04:21.368Z,14.00
2023-05-12T06:06:49.454Z,13.99
2023-05-12T06:09:17.333Z,13.99
2023-05-12T06:11:45.076Z,13.99
2023-05-12T06:14:12.868Z,14.01
2023-05-12T06:16:42.138Z,13.97
2023-05-12T06:19:10.603Z,13.98
2023-05-12T06:21:38.688Z,13.99
2023-05-12T06:24:06.840Z,13.99
2023-05-12T06:26:34.759Z,13.99
2023-05-12T06:29:02.610Z,14.00
2023-05-12T06:31:30.499Z,14.01
2023-05-12T06:33:59.765Z,13.95
2023-05-12T06:36:28.860Z,14.03
2023-05-12T06:38:56.743Z,14.03
2023-05-12T06:41:25.342Z,14.04
2023-05-12T06:43:53.463Z,13.95
2023-05-12T06:46:21.266Z,14.04
2023-05-12T06:48:49.167Z,14.04
2023-05-12T06:51:18.595Z,14.04
2023-05-12T06:53:46.402Z,14.06
2023-05-12T06:56:16.968Z,14.06
2023-05-12T06:58:44.846Z,14.07
2023-05-12T07:01:12.864Z,14.06
2023-05-12T07:03:40.684Z,14.08
2023-05-12T07:06:08.860Z,14.08
2023-05-12T07:08:37.970Z,14.07
2023-05-12T07:11:05.810Z,14.09
2023-05-12T07:13:33.626Z,14.10
2023-05-12T07:16:01.570Z,14.10
2023-05-12T07:18:29.348Z,14.10
2023-05-12T07:20:57.437Z,14.11
2023-05-12T07:23:25.276Z,14.12
2023-05-12T07:25:54.426Z,14.13
2023-05-12T07:28:22.225Z,14.14
2023-05-12T07:30:50.142Z,14.15
2023-05-12T07:33:17.974Z,14.16
2023-05-12T07:35:47.001Z,14.18
2023-05-12T07:38:15.458Z,14.18
2023-05-12T07:40:43.252Z,14.19
2023-05-12T07:43:12.411Z,14.19
2023-05-12T07:45:40.326Z,14.19
2023-05-12T07:48:08.142Z,14.20
2023-05-12T07:50:36.140Z,14.21
2023-05-12T07:53:04.425Z,14.23
2023-05-12T07:55:33.452Z,14.25
2023-05-12T07:58:01.375Z,14.26
2023-05-12T08:00:30.581Z,14.27
2023-05-12T08:02:58.763Z,14.28
2023-05-12T08:05:26.852Z,14.29
2023-05-12T08:07:54.671Z,14.29
2023-05-12T08:10:26.675Z,14.30
2023-05-12T08:12:54.631Z,14.31
2023-05-12T08:15:22.670Z,14.33
2023-05-12T08:17:52.095Z,14.33
2023-05-12T08:20:20.333Z,14.33
2023-05-12T08:22:48.377Z,14.34
2023-05-12T08:25:16.221Z,14.35
2023-05-12T08:27:44.013Z,14.40
2023-05-12T08:30:12.806Z,14.40
2023-05-12T08:32:40.833Z,14.34
2023-05-12T08:35:10.180Z,14.36
2023-05-12T08:37:38.022Z,14.41
2023-05-12T08:40:14.895Z,14.40
2023-05-12T08:42:45.117Z,14.41
2023-05-12T08:45:13.120Z,14.43
2023-05-12T08:47:42.759Z,14.50
2023-05-12T08:50:15.229Z,14.49
2023-05-12T08:52:43.055Z,14.49
2023-05-12T08:55:11.852Z,14.48
2023-05-12T08:57:40.056Z,14.53
2023-05-12T09:00:10.024Z,14.53
2023-05-12T09:02:51.989Z,14.55
2023-05-12T09:05:24.231Z,14.64
2023-05-12T09:07:54.872Z,14.59
2023-05-12T09:10:34.251Z,14.63
2023-05-12T09:13:05.740Z,14.62
2023-05-12T09:15:38.490Z,14.62
2023-05-12T09:18:06.561Z,14.61
2023-05-12T09:20:36.460Z,14.65
2023-05-12T09:23:14.806Z,14.67
2023-05-12T09:25:44.140Z,14.66
2023-05-12T09:28:12.942Z,14.65
2023-05-12T09:30:42.499Z,14.68
2023-05-12T09:33:11.771Z,14.67
2023-05-12T09:35:45.627Z,14.68
2023-05-12T09:38:15.151Z,14.71
2023-05-12T09:40:43.468Z,14.77
2023-05-12T09:43:15.148Z,14.75
2023-05-12T09:45:44.199Z,14.75
2023-05-12T09:48:14.277Z,14.76
2023-05-12T09:50:48.852Z,14.75
2023-05-12T09:53:19.412Z,14.75
2023-05-12T09:55:48.575Z,14.79
2023-05-12T09:58:18.259Z,14.80
2023-05-12T10:03:21.832Z,14.84
2023-05-12T10:05:55.515Z,14.85
2023-05-12T10:08:28.365Z,14.87
2023-05-12T10:10:57.700Z,14.86
2023-05-12T10:13:26.307Z,14.87
2023-05-12T10:15:57.198Z,14.88
2023-05-12T10:18:25.373Z,14.91
2023-05-12T10:20:55.294Z,14.97
2023-05-12T10:23:24.518Z,14.90
2023-05-12T10:25:54.272Z,14.97
2023-05-12T10:28:22.563Z,14.97
2023-05-12T10:30:52.179Z,14.97
2023-05-12T10:33:20.042Z,14.99
2023-05-12T10:35:49.462Z,15.00
2023-05-12T10:38:20.016Z,14.96
2023-05-12T10:40:55.901Z,15.03
2023-05-12T10:43:24.938Z,14.96
2023-05-12T10:46:12.046Z,15.08
2023-05-12T10:48:50.725Z,15.11
2023-05-12T10:51:21.848Z,15.14
2023-05-12T10:53:55.087Z,15.17
2023-05-12T10:56:24.645Z,15.21
2023-05-12T10:59:17.225Z,15.22
2023-05-12T11:02:03.971Z,15.32
2023-05-12T11:04:43.049Z,15.31
2023-05-12T11:07:13.777Z,15.34
2023-05-12T11:09:53.755Z,15.40
2023-05-12T11:12:27.602Z,15.43
2023-05-12T11:14:55.558Z,15.40
2023-05-12T11:17:23.471Z,15.44
2023-05-12T11:19:52.737Z,15.47
2023-05-12T11:22:22.126Z,15.46
2023-05-12T11:24:53.117Z,15.49
2023-05-12T11:27:23.518Z,15.45
2023-05-12T11:29:58.934Z,15.51
2023-05-12T11:32:26.880Z,15.56
2023-05-12T11:34:54.857Z,15.56
2023-05-12T11:37:23.597Z,15.55
2023-05-12T11:39:53.777Z,15.65
2023-05-12T11:42:25.060Z,15.67
2023-05-12T11:44:55.541Z,15.68
2023-05-12T11:47:23.454Z,15.67
2023-05-12T11:49:52.507Z,15.69
2023-05-12T11:52:22.169Z,15.71
2023-05-12T11:54:51.628Z,15.71
2023-05-12T11:57:28.353Z,15.71
2023-05-12T12:00:00.369Z,15.72
2023-05-12T12:02:28.869Z,15.73
2023-05-12T12:04:57.061Z,15.78
2023-05-12T12:07:32.676Z,15.81
2023-05-12T12:10:01.905Z,15.82
2023-05-12T12:12:31.131Z,15.86
2023-05-12T12:15:00.281Z,15.85
2023-05-12T12:17:30.920Z,15.87
2023-05-12T12:19:59.216Z,15.91
2023-05-12T12:22:27.288Z,15.91
2023-05-12T12:24:55.238Z,15.91
2023-05-12T12:27:23.006Z,15.93
2023-05-12T12:29:52.175Z,16.10
2023-05-12T12:32:19.994Z,16.07
2023-05-12T12:34:49.145Z,16.06
2023-05-12T12:37:17.390Z,16.05
2023-05-12T12:39:45.435Z,16.06
2023-05-12T12:42:13.410Z,16.06
2023-05-12T12:44:41.259Z,16.08
2023-05-12T12:47:10.631Z,16.09
2023-05-12T12:49:38.541Z,16.10
2023-05-12T12:52:07.252Z,16.10
2023-05-12T12:54:35.570Z,16.16
2023-05-12T12:57:04.174Z,16.19
2023-05-12T12:59:32.295Z,16.18
2023-05-12T13:02:01.500Z,16.14
2023-05-12T13:04:30.708Z,16.22
2023-05-12T13:06:58.559Z,16.21
2023-05-12T13:09:26.320Z,16.22
2023-05-12T13:11:54.154Z,16.22
2023-05-12T13:14:21.973Z,16.20
2023-05-12T13:16:49.905Z,16.24
2023-05-12T13:19:17.705Z,16.24
2023-05-12T13:21:46.944Z,16.24
2023-05-12T13:24:14.760Z,16.24
2023-05-12T13:26:42.497Z,16.24
2023-05-12T13:29:10.318Z,16.24
2023-05-12T13:31:38.803Z,16.27
2023-05-12T13:34:06.600Z,16.27
2023-05-12T13:36:34.770Z,16.26
2023-05-12T13:39:04.027Z,16.25
2023-05-12T13:41:31.827Z,16.28
2023-05-12T13:43:59.686Z,16.30
2023-05-12T13:46:27.688Z,16.30
2023-05-12T13:48:55.503Z,16.30
2023-05-12T13:51:23.942Z,16.32
2023-05-12T13:53:51.737Z,16.34
2023-05-12T13:56:21.182Z,16.36
2023-05-12T13:58:49.142Z,16.36
2023-05-12T14:01:17.088Z,16.36
2023-05-12T14:03:45.641Z,16.39
2023-05-12T14:06:13.570Z,16.39
2023-05-12T14:08:41.886Z,16.39
2023-05-12T14:11:10.093Z,16.39
2023-05-12T14:13:39.406Z,16.42
2023-05-12T14:16:08.028Z,16.43
2023-05-12T14:18:36.143Z,16.44
2023-05-12T14:21:04.255Z,16.43
2023-05-12T14:23:32.145Z,16.48
2023-05-12T14:25:59.984Z,16.48
2023-05-12T14:28:28.980Z,16.50
2023-05-12T14:30:58.312Z,16.50
2023-05-12T14:33:26.152Z,16.53
2023-05-12T14:36:05.925Z,16.53
2023-05-12T14:38:35.756Z,16.51
2023-05-12T14:41:04.016Z,16.53
2023-05-12T14:43:31.890Z,16.56
2023-05-12T14:46:02.475Z,16.59
2023-05-12T14:48:30.454Z,16.60
2023-05-12T14:50:58.790Z,16.60
2023-05-12T14:53:26.734Z,16.66
2023-05-12T14:55:54.515Z,16.74
2023-05-12T14:58:24.376Z,16.77
2023-05-12T15:00:52.496Z,16.78
2023-05-12T15:03:21.903Z,16.78
2023-05-12T15:08:21.583Z,16.76
2023-05-12T15:10:50.047Z,16.75
2023-05-12T15:13:20.230Z,16.76
2023-05-12T15:15:48.304Z,16.75
2023-05-12T15:18:16.369Z,16.77
2023-05-12T15:20:46.010Z,16.77
2023-05-12T15:23:13.851Z,16.79
2023-05-12T15:25:41.997Z,16.77
2023-05-12T15:28:09.808Z,16.77
2023-05-12T15:30:37.631Z,16.80
2023-05-12T15:33:06.214Z,16.83
2023-05-12T15:35:34.772Z,16.79
2023-05-12T15:38:04.074Z,16.99
2023-05-12T15:40:31.869Z,17.04
2023-05-12T15:42:59.665Z,17.02
2023-05-12T15:45:27.892Z,17.01
2023-05-12T15:47:56.825Z,16.98
2023-05-12T15:50:24.898Z,16.97
2023-05-12T15:52:52.722Z,16.94
2023-05-12T15:55:22.296Z,16.94
2023-05-12T15:57:50.999Z,16.94
2023-05-12T16:00:20.786Z,16.94
2023-05-12T16:02:49.817Z,16.97
2023-05-12T16:05:18.009Z,16.96
2023-05-12T16:07:45.930Z,16.96
2023-05-12T16:10:13.742Z,16.97
2023-05-12T16:12:42.905Z,16.96
2023-05-12T16:15:11.960Z,16.97
2023-05-12T16:17:39.731Z,16.98
2023-05-12T16:20:09.197Z,16.99
2023-05-12T16:22:37.700Z,17.01
2023-05-12T16:25:06.361Z,17.02
2023-05-12T16:27:35.690Z,17.05
2023-05-12T16:30:05.900Z,17.06
2023-05-12T16:32:33.877Z,17.06
2023-05-12T16:35:01.673Z,17.01
2023-05-12T16:37:29.468Z,16.99
2023-05-12T16:39:57.258Z,16.97
2023-05-12T16:42:25.531Z,16.96
2023-05-12T16:44:54.560Z,16.89
2023-05-12T16:47:24.021Z,16.91
2023-05-12T16:49:53.223Z,16.89
2023-05-12T16:52:21.119Z,16.87
2023-05-12T16:54:48.924Z,16.85
2023-05-12T16:57:16.701Z,16.83
2023-05-12T16:59:44.520Z,16.81
2023-05-12T17:02:12.423Z,16.80
2023-05-12T17:04:41.577Z,16.78
2023-05-12T17:07:09.706Z,16.76
2023-05-12T17:09:37.906Z,16.75
2023-05-12T17:12:06.922Z,16.74
2023-05-12T17:14:35.250Z,16.73
2023-05-12T17:17:03.397Z,16.72
2023-05-12T17:19:31.247Z,16.71
2023-05-12T17:22:00.514Z,16.71
2023-05-12T17:24:29.110Z,16.71
2023-05-12T17:26:57.642Z,16.70
2023-05-12T17:29:25.450Z,16.70
2023-05-12T17:31:53.684Z,16.69
2023-05-12T17:34:21.488Z,16.68
2023-05-12T17:36:49.276Z,16.63
2023-05-12T17:39:18.461Z,16.66
2023-05-12T17:41:47.232Z,16.65
2023-05-12T17:44:15.453Z,16.64
2023-05-12T17:46:43.421Z,16.62
2023-05-12T17:49:11.282Z,16.61
2023-05-12T17:51:39.222Z,16.58
2023-05-12T17:54:07.126Z,16.59
2023-05-12T17:56:36.538Z,16.58
2023-05-12T17:59:04.365Z,16.59
2023-05-12T18:01:32.183Z,16.57
2023-05-12T18:03:59.965Z,16.56
2023-05-12T18:06:27.842Z,16.55
2023-05-12T18:08:56.569Z,16.55
2023-05-12T18:11:24.408Z,16.53
2023-05-12T18:13:53.795Z,16.53
2023-05-12T18:16:28.335Z,16.52
2023-05-12T18:18:56.723Z,16.51
2023-05-12T18:21:24.856Z,16.50
2023-05-12T18:23:52.799Z,16.50
2023-05-12T18:26:20.801Z,16.42
2023-05-12T18:28:48.729Z,16.48
2023-05-12T18:31:19.674Z,16.47
2023-05-12T18:33:47.843Z,16.45
2023-05-12T18:36:15.752Z,16.46
2023-05-12T18:38:43.655Z,16.46
2023-05-12T18:41:12.759Z,16.38
2023-05-12T18:43:41.867Z,16.46
2023-05-12T18:46:09.887Z,16.45
2023-05-12T18:48:39.099Z,16.44
2023-05-12T18:51:07.120Z,16.44
2023-05-12T18:53:35.228Z,16.43
2023-05-12T18:56:03.535Z,16.43
2023-05-12T18:58:31.312Z,16.43
2023-05-12T19:00:59.293Z,16.43
2023-05-12T19:03:27.325Z,16.43
2023-05-12T19:05:56.503Z,16.42
2023-05-12T19:08:24.281Z,16.42
2023-05-12T19:10:52.116Z,16.42
2023-05-12T19:13:20.170Z,16.41
2023-05-12T19:15:48.099Z,16.41
2023-05-12T19:18:17.217Z,16.41
2023-05-12T19:20:45.091Z,16.41
2023-05-12T19:23:14.328Z,16.40
2023-05-12T19:25:43.551Z,16.39
2023-05-12T19:28:11.970Z,16.37
2023-05-12T19:30:39.805Z,16.37
2023-05-12T19:33:07.802Z,16.37
2023-05-12T19:35:36.228Z,16.35
2023-05-12T19:38:04.282Z,16.27
2023-05-12T19:40:33.543Z,16.34
2023-05-12T19:43:01.979Z,16.33
2023-05-12T19:45:30.084Z,16.34
2023-05-12T19:47:58.235Z,16.25
2023-05-12T19:50:26.410Z,16.31
2023-05-12T19:52:54.252Z,16.31
2023-05-12T19:55:22.366Z,16.31
2023-05-12T19:57:52.783Z,16.30
2023-05-12T20:00:22.176Z,16.29
2023-05-12T20:02:50.451Z,16.28
2023-05-12T20:05:18.577Z,16.27
2023-05-12T20:07:46.391Z,16.26
2023-05-12T20:10:14.154Z,16.26
2023-05-12T20:12:42.123Z,16.26
2023-05-12T20:15:12.352Z,16.25
2023-05-12T20:17:40.156Z,16.25
2023-05-12T20:20:11.405Z,16.24
2023-05-12T20:22:39.288Z,16.24
2023-05-12T20:25:07.853Z,16.23
2023-05-12T20:27:35.630Z,16.22
2023-05-12T20:30:03.467Z,16.21
2023-05-12T20:32:33.470Z,16.21
2023-05-12T20:35:01.469Z,16.20
2023-05-12T20:37:29.257Z,16.19
2023-05-12T20:39:57.094Z,16.19
2023-05-12T20:42:24.948Z,16.18
2023-05-12T20:44:53.785Z,16.17
2023-05-12T20:47:21.605Z,16.17
2023-05-12T20:49:56.015Z,16.16
2023-05-12T20:52:24.726Z,16.14
2023-05-12T20:54:57.932Z,16.14
2023-05-12T20:57:25.762Z,16.13
2023-05-12T20:59:56.706Z,16.13
2023-05-12T21:02:25.128Z,16.05
2023-05-12T21:04:55.217Z,16.13
2023-05-12T21:07:23.179Z,16.11
2023-05-12T21:09:51.015Z,16.09
2023-05-12T21:12:18.771Z,16.09
2023-05-12T21:14:46.590Z,16.08
2023-05-12T21:17:14.825Z,16.06
2023-05-12T21:19:44.020Z,16.06
2023-05-12T21:22:13.267Z,16.05
2023-05-12T21:24:42.035Z,16.04
2023-05-12T21:27:10.017Z,16.03
2023-05-12T21:29:38.189Z,16.03
2023-05-12T21:32:06.883Z,16.01
2023-05-12T21:34:36.111Z,16.01
2023-05-12T21:37:04.084Z,16.01
2023-05-12T21:39:33.215Z,15.99
2023-05-12T21:42:01.115Z,15.98
2023-05-12T21:44:28.866Z,15.98
2023-05-12T21:46:58.618Z,15.98
2023-05-12T21:49:26.874Z,15.96
2023-05-12T21:51:55.987Z,15.95
2023-05-12T21:54:23.808Z,15.95
2023-05-12T21:56:53.184Z,15.94
2023-05-12T21:59:20.948Z,15.94
2023-05-12T22:01:48.834Z,15.89
2023-05-12T22:04:16.706Z,15.93
2023-05-12T22:06:44.555Z,15.93
2023-05-12T22:09:12.830Z,15.91
2023-05-12T22:11:40.804Z,15.91
2023-05-12T22:14:10.249Z,15.89
2023-05-12T22:16:41.836Z,15.90
2023-05-12T22:19:10.628Z,15.90
2023-05-12T22:21:38.732Z,15.88
2023-05-12T22:24:07.158Z,15.87
2023-05-12T22:26:34.993Z,15.87
2023-05-12T22:29:02.895Z,15.87
2023-05-12T22:31:32.164Z,15.86
2023-05-12T22:34:00.165Z,15.84
2023-05-12T22:36:27.986Z,15.84
2023-05-12T22:38:55.772Z,15.83
2023-05-12T22:41:23.581Z,15.83
2023-05-12T22:43:51.545Z,15.82
2023-05-12T22:46:19.384Z,15.80
2023-05-12T22:48:48.550Z,15.79
2023-05-12T22:51:16.328Z,15.78
2023-05-12T22:53:44.130Z,15.77
2023-05-12T22:56:11.921Z,15.77
2023-05-12T22:58:39.710Z,15.76
2023-05-12T23:01:07.539Z,15.74
2023-05-12T23:03:35.450Z,15.73
2023-05-12T23:06:04.806Z,15.71
2023-05-12T23:08:32.611Z,15.70
2023-05-12T23:11:00.672Z,15.69
2023-05-12T23:13:28.473Z,15.59
2023-05-12T23:15:56.510Z,15.68
2023-05-12T23:18:24.447Z,15.66
2023-05-12T23:20:52.326Z,15.67
2023-05-12T23:23:21.494Z,15.66
2023-05-12T23:25:49.470Z,15.63
2023-05-12T23:28:17.294Z,15.62
2023-05-12T23:30:45.087Z,15.63
2023-05-12T23:33:13.037Z,15.62
2023-05-12T23:35:40.841Z,15.60
2023-05-12T23:38:08.659Z,15.60
2023-05-12T23:40:39.324Z,15.57
2023-05-12T23:43:07.222Z,15.59
2023-05-12T23:45:35.491Z,15.58
2023-05-12T23:48:03.350Z,15.55
2023-05-12T23:50:31.166Z,15.56
2023-05-12T23:52:59.213Z,15.55
2023-05-12T23:55:27.008Z,15.54
2023-05-12T23:57:56.130Z,15.54
